createdAt,value
2019-02-17T00:04:30.614Z,14.20
2019-02-17T00:10:35.187Z,10.37
2019-02-17T00:16:40.873Z,12.80
2019-02-17T00:22:45.417Z,12.30
2019-02-17T00:28:58.919Z,13.13
2019-02-17T00:34:56.229Z,12.10
2019-02-17T00:41:00.838Z,13.43
2019-02-17T00:47:05.385Z,11.07
2019-02-17T00:53:09.922Z,17.87
2019-02-17T00:59:14.483Z,11.50
2019-02-17T01:05:19.027Z,9.83
2019-02-17T01:11:23.582Z,14.23
2019-02-17T01:17:28.199Z,10.30
2019-02-17T01:23:32.737Z,13.27
2019-02-17T01:29:37.294Z,18.07
2019-02-17T01:35:41.979Z,12.10
2019-02-17T01:41:46.541Z,14.47
2019-02-17T01:47:51.093Z,15.63
2019-02-17T01:53:55.636Z,19.33
2019-02-17T02:00:00.361Z,18.00
2019-02-17T02:06:05.108Z,21.90
2019-02-17T02:12:09.670Z,14.53
2019-02-17T02:18:14.224Z,14.40
2019-02-17T02:24:18.758Z,14.23
2019-02-17T02:30:23.319Z,10.67
2019-02-17T02:36:29.642Z,12.37
2019-02-17T02:42:34.287Z,14.13
2019-02-17T02:48:38.845Z,15.83
2019-02-17T02:54:43.384Z,13.07
2019-02-17T03:00:47.945Z,17.00
2019-02-17T03:06:54.172Z,14.93
2019-02-17T03:12:58.733Z,18.80
2019-02-17T03:19:03.272Z,16.37
2019-02-17T03:25:08.745Z,17.23
2019-02-17T03:31:13.276Z,14.93
2019-02-17T03:37:17.911Z,13.70
2019-02-17T03:43:22.545Z,11.17
2019-02-17T03:49:27.084Z,14.60
2019-02-17T03:55:31.630Z,14.50
2019-02-17T04:01:36.205Z,13.23
2019-02-17T04:07:40.755Z,16.33
2019-02-17T04:13:45.375Z,15.23
2019-02-17T04:19:49.930Z,14.40
2019-02-17T04:25:55.469Z,21.17
2019-02-17T04:32:00.026Z,19.57
2019-02-17T04:38:04.586Z,18.77
2019-02-17T04:44:09.157Z,14.13
2019-02-17T04:50:13.710Z,15.83
2019-02-17T04:56:18.257Z,13.13
2019-02-17T05:02:22.885Z,15.90
2019-02-17T05:08:27.445Z,18.80
2019-02-17T05:14:33.025Z,14.67
2019-02-17T05:20:37.593Z,19.37
2019-02-17T05:26:42.778Z,15.00
2019-02-17T05:32:47.700Z,17.27
2019-02-17T05:38:52.242Z,18.93
2019-02-17T05:44:56.799Z,15.90
2019-02-17T05:51:01.426Z,12.53
2019-02-17T05:57:05.971Z,18.40
2019-02-17T06:03:10.612Z,14.67
2019-02-17T06:09:15.151Z,24.00
2019-02-17T06:15:21.803Z,21.43
2019-02-17T06:21:26.350Z,17.97
2019-02-17T06:27:30.906Z,20.07
2019-02-17T06:33:35.456Z,21.33
2019-02-17T06:39:40.010Z,18.70
2019-02-17T06:45:44.554Z,15.60
2019-02-17T06:51:49.129Z,20.10
2019-02-17T06:57:53.678Z,20.93
2019-02-17T07:03:58.314Z,18.20
2019-02-17T07:10:02.871Z,20.70
2019-02-17T07:16:07.445Z,21.97
2019-02-17T07:22:12.004Z,17.50
2019-02-17T07:28:16.633Z,16.67
2019-02-17T07:34:21.175Z,16.97
2019-02-17T07:40:25.730Z,19.37
2019-02-17T07:46:30.283Z,19.00
2019-02-17T07:52:36.403Z,15.73
2019-02-17T07:58:40.945Z,15.90
2019-02-17T08:04:45.559Z,14.33
2019-02-17T08:10:51.045Z,20.53
2019-02-17T08:16:55.927Z,18.80
2019-02-17T08:23:00.594Z,14.93
2019-02-17T08:29:05.135Z,15.80
2019-02-17T08:35:10.121Z,18.50
2019-02-17T08:41:15.435Z,17.63
2019-02-17T08:47:19.983Z,16.10
2019-02-17T08:53:24.715Z,17.40
2019-02-17T08:59:29.583Z,17.23
2019-02-17T09:05:43.579Z,17.87
2019-02-17T09:11:40.413Z,15.47
2019-02-17T09:17:44.953Z,17.00
2019-02-17T09:23:49.594Z,16.73
2019-02-17T09:29:54.191Z,20.20
2019-02-17T09:35:59.320Z,23.50
2019-02-17T09:42:03.942Z,21.10
2019-02-17T09:48:08.506Z,21.53
2019-02-17T09:54:13.048Z,23.83
2019-02-17T10:00:17.783Z,17.47
2019-02-17T10:06:22.331Z,18.97
2019-02-17T10:12:26.888Z,17.10
2019-02-17T10:18:31.429Z,20.00
2019-02-17T10:24:38.328Z,19.83
2019-02-17T10:30:42.972Z,19.77
2019-02-17T10:36:47.541Z,18.77
2019-02-17T10:42:52.965Z,24.23
2019-02-17T10:48:57.841Z,23.37
2019-02-17T10:55:03.223Z,19.83
2019-02-17T11:01:07.789Z,25.27
2019-02-17T11:07:12.332Z,27.80
2019-02-17T11:13:16.894Z,21.70
2019-02-17T11:19:21.598Z,28.17
2019-02-17T11:25:26.159Z,26.70
2019-02-17T11:31:31.038Z,20.90
2019-02-17T11:37:37.638Z,25.17
2019-02-17T11:43:42.339Z,26.97
2019-02-17T11:49:50.432Z,28.10
2019-02-17T11:55:55.355Z,28.13
2019-02-17T12:01:59.991Z,26.80
2019-02-17T12:08:04.516Z,28.33
2019-02-17T12:14:09.088Z,28.67
2019-02-17T12:20:31.462Z,25.67
2019-02-17T12:26:55.776Z,23.87
2019-02-17T12:33:00.337Z,25.20
2019-02-17T12:39:06.035Z,29.07
2019-02-17T12:45:17.996Z,26.83
2019-02-17T12:51:19.890Z,26.40
2019-02-17T12:57:24.447Z,22.77
2019-02-17T13:03:29.483Z,25.10
2019-02-17T13:09:34.037Z,28.67
2019-02-17T13:15:38.591Z,26.60
2019-02-17T13:21:43.153Z,33.17
2019-02-17T13:27:49.000Z,30.20
2019-02-17T13:33:53.559Z,25.90
2019-02-17T13:39:58.121Z,23.07
2019-02-17T13:46:02.694Z,26.97
2019-02-17T13:52:07.241Z,30.70
2019-02-17T13:58:11.805Z,25.97
2019-02-17T14:04:16.363Z,30.00
2019-02-17T14:10:22.634Z,31.63
2019-02-17T14:16:27.210Z,23.90
2019-02-17T14:22:31.760Z,30.63
2019-02-17T14:28:36.303Z,29.53
2019-02-17T14:34:46.052Z,25.30
2019-02-17T14:40:50.608Z,20.97
2019-02-17T14:46:55.151Z,27.87
2019-02-17T14:52:59.723Z,25.77
2019-02-17T14:59:04.355Z,22.43
2019-02-17T15:05:10.520Z,19.90
2019-02-17T15:11:15.157Z,20.60
2019-02-17T15:17:20.214Z,25.00
2019-02-17T15:23:25.324Z,25.60
2019-02-17T15:29:32.102Z,21.30
2019-02-17T15:35:36.657Z,20.47
2019-02-17T15:41:41.213Z,34.10
2019-02-17T15:47:45.782Z,25.17
2019-02-17T15:53:50.338Z,20.83
2019-02-17T15:59:54.974Z,17.90
2019-02-17T16:05:59.523Z,23.63
2019-02-17T16:12:04.081Z,18.50
2019-02-17T16:18:08.622Z,15.00
2019-02-17T16:24:13.191Z,17.10
2019-02-17T16:30:23.027Z,15.43
2019-02-17T16:36:27.585Z,23.30
2019-02-17T16:42:32.222Z,18.90
2019-02-17T16:48:36.751Z,21.40
2019-02-17T16:54:41.316Z,19.57
2019-02-17T17:00:45.935Z,18.70
2019-02-17T17:06:50.565Z,23.60
2019-02-17T17:12:55.173Z,19.73
2019-02-17T17:19:01.136Z,16.00
2019-02-17T17:25:09.493Z,18.27
2019-02-17T17:31:14.057Z,22.47
2019-02-17T17:37:19.168Z,21.47
2019-02-17T17:43:23.711Z,22.13
2019-02-17T17:49:28.931Z,22.20
2019-02-17T17:55:33.537Z,19.77
2019-02-17T18:01:38.090Z,20.87
2019-02-17T18:07:42.635Z,18.23
2019-02-17T18:13:47.184Z,19.17
2019-02-17T18:19:51.725Z,20.50
2019-02-17T18:25:56.271Z,22.23
2019-02-17T18:32:00.856Z,28.37
2019-02-17T18:38:05.521Z,23.70
2019-02-17T18:44:10.076Z,22.43
2019-02-17T18:50:17.391Z,25.27
2019-02-17T18:56:21.937Z,21.40
2019-02-17T19:02:26.481Z,40.63
2019-02-17T19:08:31.035Z,21.10
2019-02-17T19:14:35.580Z,16.93
2019-02-17T19:20:41.556Z,20.17
2019-02-17T19:26:46.108Z,18.93
2019-02-17T19:32:53.766Z,21.90
2019-02-17T19:39:03.548Z,22.17
2019-02-17T19:45:19.013Z,20.77
2019-02-17T19:51:23.578Z,28.23
2019-02-17T19:57:28.121Z,25.90
2019-02-17T20:03:36.943Z,24.33
2019-02-17T20:09:41.483Z,24.93
2019-02-17T20:15:46.097Z,23.60
2019-02-17T20:21:50.666Z,25.17
2019-02-17T20:27:55.219Z,20.93
2019-02-17T20:33:59.752Z,20.13
2019-02-17T20:40:12.502Z,22.63
2019-02-17T20:46:17.068Z,22.93
2019-02-17T20:52:22.525Z,20.30
2019-02-17T20:58:27.069Z,23.30
2019-02-17T21:04:31.678Z,24.17
2019-02-17T21:10:36.220Z,21.03
2019-02-17T21:16:40.775Z,16.47
2019-02-17T21:22:45.548Z,23.10
2019-02-17T21:28:50.094Z,19.40
2019-02-17T21:34:54.643Z,19.13
2019-02-17T21:41:08.732Z,18.03
2019-02-17T21:47:06.411Z,17.97
2019-02-17T21:53:20.512Z,18.13
2019-02-17T21:59:17.540Z,17.30
2019-02-17T22:05:22.083Z,15.83
2019-02-17T22:11:26.633Z,18.73
2019-02-17T22:17:31.178Z,15.37
2019-02-17T22:23:35.719Z,17.23
2019-02-17T22:29:40.272Z,15.60
2019-02-17T22:35:45.408Z,14.13
2019-02-17T22:41:49.956Z,14.50
2019-02-17T22:47:55.178Z,14.27
2019-02-17T22:54:00.047Z,16.20
2019-02-17T23:00:07.890Z,13.50
2019-02-17T23:06:12.436Z,24.13
2019-02-17T23:12:17.137Z,17.47
2019-02-17T23:18:21.700Z,15.50
2019-02-17T23:24:26.420Z,15.23
2019-02-17T23:30:31.033Z,18.90
2019-02-17T23:36:35.590Z,13.67
2019-02-17T23:42:42.492Z,19.07
2019-02-17T23:48:47.360Z,15.80
2019-02-17T23:54:52.228Z,16.83
